sensor_id;sensor_type;location;lat;lon;timestamp;temperature;humidity
68274;SHT30;55104;47.356;19.448;2024-01-15T00:01:22;-2.07;94.67
68274;SHT30;55104;47.356;19.448;2024-01-15T00:04:24;-2.06;94.70
68274;SHT30;55104;47.356;19.448;2024-01-15T00:07:27;-2.07;94.81
68274;SHT30;55104;47.356;19.448;2024-01-15T00:10:29;-2.02;94.63
68274;SHT30;55104;47.356;19.448;2024-01-15T00:13:32;-1.96;94.56
68274;SHT30;55104;47.356;19.448;2024-01-15T00:16:34;-1.96;94.50
68274;SHT30;55104;47.356;19.448;2024-01-15T00:19:36;-1.95;94.48
68274;SHT30;55104;47.356;19.448;2024-01-15T00:22:39;-1.95;94.36
68274;SHT30;55104;47.356;19.448;2024-01-15T00:25:41;-1.93;94.18
68274;SHT30;55104;47.356;19.448;2024-01-15T00:28:45;-1.96;94.29
68274;SHT30;55104;47.356;19.448;2024-01-15T00:31:47;-1.99;94.41
68274;SHT30;55104;47.356;19.448;2024-01-15T00:34:50;-1.96;94.35
68274;SHT30;55104;47.356;19.448;2024-01-15T00:37:53;-1.95;94.36
68274;SHT30;55104;47.356;19.448;2024-01-15T00:40:55;-1.89;94.41
68274;SHT30;55104;47.356;19.448;2024-01-15T00:43:57;-1.90;94.36
68274;SHT30;55104;47.356;19.448;2024-01-15T00:47:00;-1.85;94.50
68274;SHT30;55104;47.356;19.448;2024-01-15T00:50:04;-1.82;94.45
68274;SHT30;55104;47.356;19.448;2024-01-15T00:53:06;-1.83;94.49
68274;SHT30;55104;47.356;19.448;2024-01-15T00:56:08;-1.75;94.30
68274;SHT30;55104;47.356;19.448;2024-01-15T00:59:11;-1.72;94.36
68274;SHT30;55104;47.356;19.448;2024-01-15T01:02:17;-1.68;94.20
68274;SHT30;55104;47.356;19.448;2024-01-15T01:05:19;-1.72;94.15
68274;SHT30;55104;47.356;19.448;2024-01-15T01:08:21;-1.72;94.23
68274;SHT30;55104;47.356;19.448;2024-01-15T01:11:23;-1.72;94.30
68274;SHT30;55104;47.356;19.448;2024-01-15T01:14:25;-1.71;94.20
68274;SHT30;55104;47.356;19.448;2024-01-15T01:17:28;-1.70;94.24
68274;SHT30;55104;47.356;19.448;2024-01-15T01:20:31;-1.68;94.25
68274;SHT30;55104;47.356;19.448;2024-01-15T01:23:34;-1.68;94.20
68274;SHT30;55104;47.356;19.448;2024-01-15T01:26:36;-1.74;94.30
68274;SHT30;55104;47.356;19.448;2024-01-15T01:29:38;-1.74;94.15
68274;SHT30;55104;47.356;19.448;2024-01-15T01:32:41;-1.75;94.11
68274;SHT30;55104;47.356;19.448;2024-01-15T01:35:43;-1.78;94.09
68274;SHT30;55104;47.356;19.448;2024-01-15T01:38:47;-1.79;94.15
68274;SHT30;55104;47.356;19.448;2024-01-15T01:41:49;-1.85;93.99
68274;SHT30;55104;47.356;19.448;2024-01-15T01:44:51;-1.92;94.22
68274;SHT30;55104;47.356;19.448;2024-01-15T01:47:53;-2.00;94.01
68274;SHT30;55104;47.356;19.448;2024-01-15T01:50:58;-2.05;94.55
68274;SHT30;55104;47.356;19.448;2024-01-15T01:54:00;-2.03;94.33
68274;SHT30;55104;47.356;19.448;2024-01-15T01:57:04;-2.07;94.29
68274;SHT30;55104;47.356;19.448;2024-01-15T02:00:07;-2.14;94.26
68274;SHT30;55104;47.356;19.448;2024-01-15T02:03:13;-2.17;94.37
68274;SHT30;55104;47.356;19.448;2024-01-15T02:06:15;-2.20;94.75
68274;SHT30;55104;47.356;19.448;2024-01-15T02:09:18;-2.16;94.82
68274;SHT30;55104;47.356;19.448;2024-01-15T02:12:20;-2.27;94.56
68274;SHT30;55104;47.356;19.448;2024-01-15T02:15:23;-2.40;95.28
68274;SHT30;55104;47.356;19.448;2024-01-15T02:18:25;-2.40;95.00
68274;SHT30;55104;47.356;19.448;2024-01-15T02:21:28;-2.54;94.98
68274;SHT30;55104;47.356;19.448;2024-01-15T02:24:31;-2.65;94.86
68274;SHT30;55104;47.356;19.448;2024-01-15T02:27:33;-2.78;94.97
68274;SHT30;55104;47.356;19.448;2024-01-15T02:30:38;-2.92;95.02
68274;SHT30;55104;47.356;19.448;2024-01-15T02:33:44;-2.99;95.23
68274;SHT30;55104;47.356;19.448;2024-01-15T02:36:48;-3.02;95.49
68274;SHT30;55104;47.356;19.448;2024-01-15T02:39:51;-3.06;95.91
68274;SHT30;55104;47.356;19.448;2024-01-15T02:42:53;-3.14;96.01
68274;SHT30;55104;47.356;19.448;2024-01-15T02:45:55;-3.20;96.46
68274;SHT30;55104;47.356;19.448;2024-01-15T02:48:58;-3.26;95.98
68274;SHT30;55104;47.356;19.448;2024-01-15T02:52:00;-3.34;96.24
68274;SHT30;55104;47.356;19.448;2024-01-15T02:55:03;-3.38;96.45
68274;SHT30;55104;47.356;19.448;2024-01-15T02:58:07;-3.38;97.02
68274;SHT30;55104;47.356;19.448;2024-01-15T03:01:11;-3.44;97.08
68274;SHT30;55104;47.356;19.448;2024-01-15T03:04:13;-3.50;97.10
68274;SHT30;55104;47.356;19.448;2024-01-15T03:07:15;-3.43;96.62
68274;SHT30;55104;47.356;19.448;2024-01-15T03:10:18;-3.55;96.70
68274;SHT30;55104;47.356;19.448;2024-01-15T03:13:20;-3.62;97.46
68274;SHT30;55104;47.356;19.448;2024-01-15T03:16:23;-3.55;97.38
68274;SHT30;55104;47.356;19.448;2024-01-15T03:19:25;-3.65;97.09
68274;SHT30;55104;47.356;19.448;2024-01-15T03:22:28;-3.68;97.05
68274;SHT30;55104;47.356;19.448;2024-01-15T03:25:30;-3.79;96.45
68274;SHT30;55104;47.356;19.448;2024-01-15T03:28:32;-3.78;96.87
68274;SHT30;55104;47.356;19.448;2024-01-15T03:31:35;-3.81;97.03
68274;SHT30;55104;47.356;19.448;2024-01-15T03:34:37;-3.72;97.05
68274;SHT30;55104;47.356;19.448;2024-01-15T03:37:40;-3.71;96.46
68274;SHT30;55104;47.356;19.448;2024-01-15T03:40:42;-3.75;96.71
68274;SHT30;55104;47.356;19.448;2024-01-15T03:43:44;-3.75;97.07
68274;SHT30;55104;47.356;19.448;2024-01-15T03:46:47;-3.75;97.06
68274;SHT30;55104;47.356;19.448;2024-01-15T03:49:49;-3.79;96.38
68274;SHT30;55104;47.356;19.448;2024-01-15T03:52:52;-3.85;96.15
68274;SHT30;55104;47.356;19.448;2024-01-15T03:55:54;-3.78;96.35
68274;SHT30;55104;47.356;19.448;2024-01-15T03:58:57;-3.76;96.66
68274;SHT30;55104;47.356;19.448;2024-01-15T04:01:59;-3.75;96.38
68274;SHT30;55104;47.356;19.448;2024-01-15T04:05:02;-3.68;96.67
68274;SHT30;55104;47.356;19.448;2024-01-15T04:08:04;-3.66;96.74
68274;SHT30;55104;47.356;19.448;2024-01-15T04:11:07;-3.61;96.46
68274;SHT30;55104;47.356;19.448;2024-01-15T04:14:09;-3.58;96.51
68274;SHT30;55104;47.356;19.448;2024-01-15T04:17:11;-3.58;97.03
68274;SHT30;55104;47.356;19.448;2024-01-15T04:20:13;-3.58;96.65
68274;SHT30;55104;47.356;19.448;2024-01-15T04:23:16;-3.59;96.32
68274;SHT30;55104;47.356;19.448;2024-01-15T04:26:18;-3.61;96.54
68274;SHT30;55104;47.356;19.448;2024-01-15T04:29:20;-3.65;97.01
68274;SHT30;55104;47.356;19.448;2024-01-15T04:32:23;-3.57;96.74
68274;SHT30;55104;47.356;19.448;2024-01-15T04:35:25;-3.59;97.16
68274;SHT30;55104;47.356;19.448;2024-01-15T04:38:27;-3.64;96.98
68274;SHT30;55104;47.356;19.448;2024-01-15T04:41:29;-3.71;96.74
68274;SHT30;55104;47.356;19.448;2024-01-15T04:44:31;-3.76;96.51
68274;SHT30;55104;47.356;19.448;2024-01-15T04:47:34;-3.83;96.60
68274;SHT30;55104;47.356;19.448;2024-01-15T04:50:38;-3.74;96.83
68274;SHT30;55104;47.356;19.448;2024-01-15T04:53:41;-3.69;97.09
68274;SHT30;55104;47.356;19.448;2024-01-15T04:56:44;-3.72;96.98
68274;SHT30;55104;47.356;19.448;2024-01-15T04:59:46;-3.69;96.56
68274;SHT30;55104;47.356;19.448;2024-01-15T05:02:48;-3.74;96.55
68274;SHT30;55104;47.356;19.448;2024-01-15T05:05:51;-3.83;96.83
68274;SHT30;55104;47.356;19.448;2024-01-15T05:08:54;-3.92;96.73
68274;SHT30;55104;47.356;19.448;2024-01-15T05:11:56;-3.85;97.70
68274;SHT30;55104;47.356;19.448;2024-01-15T05:14:58;-3.78;97.92
68274;SHT30;55104;47.356;19.448;2024-01-15T05:18:00;-3.83;97.61
68274;SHT30;55104;47.356;19.448;2024-01-15T05:21:03;-3.79;97.36
68274;SHT30;55104;47.356;19.448;2024-01-15T05:24:05;-3.86;97.74
68274;SHT30;55104;47.356;19.448;2024-01-15T05:27:08;-3.92;97.68
68274;SHT30;55104;47.356;19.448;2024-01-15T05:30:10;-3.96;97.40
68274;SHT30;55104;47.356;19.448;2024-01-15T05:33:13;-4.04;97.36
68274;SHT30;55104;47.356;19.448;2024-01-15T05:36:15;-4.06;97.38
68274;SHT30;55104;47.356;19.448;2024-01-15T05:39:17;-4.00;97.40
68274;SHT30;55104;47.356;19.448;2024-01-15T05:42:22;-4.00;97.82
68274;SHT30;55104;47.356;19.448;2024-01-15T05:45:29;-4.04;97.70
68274;SHT30;55104;47.356;19.448;2024-01-15T05:48:32;-4.07;98.39
68274;SHT30;55104;47.356;19.448;2024-01-15T05:51:34;-4.03;98.02
68274;SHT30;55104;47.356;19.448;2024-01-15T05:54:37;-4.04;98.24
68274;SHT30;55104;47.356;19.448;2024-01-15T05:57:39;-3.99;98.21
68274;SHT30;55104;47.356;19.448;2024-01-15T06:00:42;-3.97;98.19
68274;SHT30;55104;47.356;19.448;2024-01-15T06:03:44;-3.89;98.35
68274;SHT30;55104;47.356;19.448;2024-01-15T06:06:46;-3.87;98.17
68274;SHT30;55104;47.356;19.448;2024-01-15T06:09:49;-3.86;98.09
68274;SHT30;55104;47.356;19.448;2024-01-15T06:12:51;-3.90;98.16
68274;SHT30;55104;47.356;19.448;2024-01-15T06:15:53;-3.89;98.15
68274;SHT30;55104;47.356;19.448;2024-01-15T06:18:56;-3.83;97.90
68274;SHT30;55104;47.356;19.448;2024-01-15T06:21:58;-3.86;97.95
68274;SHT30;55104;47.356;19.448;2024-01-15T06:25:01;-3.96;97.81
68274;SHT30;55104;47.356;19.448;2024-01-15T06:28:03;-3.96;98.00
68274;SHT30;55104;47.356;19.448;2024-01-15T06:31:07;-3.97;98.15
68274;SHT30;55104;47.356;19.448;2024-01-15T06:34:09;-3.94;97.81
68274;SHT30;55104;47.356;19.448;2024-01-15T06:37:12;-3.92;97.54
68274;SHT30;55104;47.356;19.448;2024-01-15T06:40:14;-3.89;97.27
68274;SHT30;55104;47.356;19.448;2024-01-15T06:43:17;-3.93;97.23
68274;SHT30;55104;47.356;19.448;2024-01-15T06:46:23;-3.89;97.66
68274;SHT30;55104;47.356;19.448;2024-01-15T06:49:25;-3.86;97.21
68274;SHT30;55104;47.356;19.448;2024-01-15T06:52:28;-3.85;97.11
68274;SHT30;55104;47.356;19.448;2024-01-15T06:55:30;-3.71;97.05
68274;SHT30;55104;47.356;19.448;2024-01-15T06:58:33;-3.65;96.91
68274;SHT30;55104;47.356;19.448;2024-01-15T07:01:35;-3.62;96.74
68274;SHT30;55104;47.356;19.448;2024-01-15T07:04:37;-3.58;96.79
68274;SHT30;55104;47.356;19.448;2024-01-15T07:07:44;-3.51;96.72
68274;SHT30;55104;47.356;19.448;2024-01-15T07:10:46;-3.43;97.21
68274;SHT30;55104;47.356;19.448;2024-01-15T07:13:49;-3.36;97.00
68274;SHT30;55104;47.356;19.448;2024-01-15T07:16:51;-3.31;96.82
68274;SHT30;55104;47.356;19.448;2024-01-15T07:19:53;-3.24;96.75
68274;SHT30;55104;47.356;19.448;2024-01-15T07:22:56;-3.16;97.20
68274;SHT30;55104;47.356;19.448;2024-01-15T07:25:58;-2.99;97.76
68274;SHT30;55104;47.356;19.448;2024-01-15T07:29:00;-2.78;97.09
68274;SHT30;55104;47.356;19.448;2024-01-15T07:32:03;-2.68;97.26
68274;SHT30;55104;47.356;19.448;2024-01-15T07:35:06;-2.61;97.14
68274;SHT30;55104;47.356;19.448;2024-01-15T07:38:08;-2.51;96.89
68274;SHT30;55104;47.356;19.448;2024-01-15T07:41:13;-2.48;96.97
68274;SHT30;55104;47.356;19.448;2024-01-15T07:44:16;-2.50;97.16
68274;SHT30;55104;47.356;19.448;2024-01-15T07:47:18;-2.45;97.08
68274;SHT30;55104;47.356;19.448;2024-01-15T07:50:20;-2.43;96.99
68274;SHT30;55104;47.356;19.448;2024-01-15T07:53:22;-2.38;97.11
68274;SHT30;55104;47.356;19.448;2024-01-15T07:56:24;-2.34;97.00
68274;SHT30;55104;47.356;19.448;2024-01-15T07:59:27;-2.33;96.85
68274;SHT30;55104;47.356;19.448;2024-01-15T08:02:29;-2.30;96.82
68274;SHT30;55104;47.356;19.448;2024-01-15T08:05:34;-2.34;96.87
68274;SHT30;55104;47.356;19.448;2024-01-15T08:08:37;-2.40;96.86
68274;SHT30;55104;47.356;19.448;2024-01-15T08:11:40;-2.34;96.78
68274;SHT30;55104;47.356;19.448;2024-01-15T08:14:45;-2.33;96.87
68274;SHT30;55104;47.356;19.448;2024-01-15T08:17:48;-2.32;97.13
68274;SHT30;55104;47.356;19.448;2024-01-15T08:20:50;-2.16;96.66
68274;SHT30;55104;47.356;19.448;2024-01-15T08:23:53;-2.23;96.66
68274;SHT30;55104;47.356;19.448;2024-01-15T08:26:55;-2.03;96.44
68274;SHT30;55104;47.356;19.448;2024-01-15T08:29:58;-1.82;95.54
68274;SHT30;55104;47.356;19.448;2024-01-15T08:33:00;-1.62;95.20
68274;SHT30;55104;47.356;19.448;2024-01-15T08:36:12;-1.24;93.42
68274;SHT30;55104;47.356;19.448;2024-01-15T08:39:15;-0.82;91.25
68274;SHT30;55104;47.356;19.448;2024-01-15T08:42:17;-0.69;91.16
68274;SHT30;55104;47.356;19.448;2024-01-15T08:45:20;-0.64;90.89
68274;SHT30;55104;47.356;19.448;2024-01-15T08:48:23;-0.56;89.80
68274;SHT30;55104;47.356;19.448;2024-01-15T08:51:28;-0.47;89.35
68274;SHT30;55104;47.356;19.448;2024-01-15T08:54:31;-0.51;89.55
68274;SHT30;55104;47.356;19.448;2024-01-15T08:57:33;-0.34;89.07
68274;SHT30;55104;47.356;19.448;2024-01-15T09:00:36;-0.14;88.44
68274;SHT30;55104;47.356;19.448;2024-01-15T09:03:39;-0.14;88.62
68274;SHT30;55104;47.356;19.448;2024-01-15T09:06:46;0.09;88.10
68274;SHT30;55104;47.356;19.448;2024-01-15T09:09:49;0.25;87.51
68274;SHT30;55104;47.356;19.448;2024-01-15T09:12:51;0.22;87.44
68274;SHT30;55104;47.356;19.448;2024-01-15T09:15:53;0.19;87.04
68274;SHT30;55104;47.356;19.448;2024-01-15T09:18:56;0.24;86.95
68274;SHT30;55104;47.356;19.448;2024-01-15T09:21:59;0.33;85.57
68274;SHT30;55104;47.356;19.448;2024-01-15T09:25:02;0.29;85.53
68274;SHT30;55104;47.356;19.448;2024-01-15T09:28:05;0.39;83.97
68274;SHT30;55104;47.356;19.448;2024-01-15T09:31:08;0.48;82.61
68274;SHT30;55104;47.356;19.448;2024-01-15T09:34:11;0.50;82.75
68274;SHT30;55104;47.356;19.448;2024-01-15T09:37:16;0.76;82.20
68274;SHT30;55104;47.356;19.448;2024-01-15T09:40:43;1.08;81.72
68274;SHT30;55104;47.356;19.448;2024-01-15T09:43:45;1.46;78.00
68274;SHT30;55104;47.356;19.448;2024-01-15T09:46:48;1.63;77.73
68274;SHT30;55104;47.356;19.448;2024-01-15T09:49:52;1.80;77.43
68274;SHT30;55104;47.356;19.448;2024-01-15T09:52:54;1.97;75.98
68274;SHT30;55104;47.356;19.448;2024-01-15T09:55:59;2.15;75.38
68274;SHT30;55104;47.356;19.448;2024-01-15T09:59:02;2.28;74.92
68274;SHT30;55104;47.356;19.448;2024-01-15T10:02:07;2.35;72.96
68274;SHT30;55104;47.356;19.448;2024-01-15T10:05:09;2.45;73.39
68274;SHT30;55104;47.356;19.448;2024-01-15T10:08:12;2.53;74.04
68274;SHT30;55104;47.356;19.448;2024-01-15T10:11:14;2.67;71.98
68274;SHT30;55104;47.356;19.448;2024-01-15T10:14:17;2.72;72.31
68274;SHT30;55104;47.356;19.448;2024-01-15T10:17:21;2.84;71.47
68274;SHT30;55104;47.356;19.448;2024-01-15T10:20:23;2.97;71.55
68274;SHT30;55104;47.356;19.448;2024-01-15T10:23:25;3.01;70.64
68274;SHT30;55104;47.356;19.448;2024-01-15T10:26:27;3.16;70.16
68274;SHT30;55104;47.356;19.448;2024-01-15T10:29:29;3.22;70.35
68274;SHT30;55104;47.356;19.448;2024-01-15T10:32:31;3.30;70.20
68274;SHT30;55104;47.356;19.448;2024-01-15T10:35:34;3.43;70.27
68274;SHT30;55104;47.356;19.448;2024-01-15T10:38:37;3.53;68.17
68274;SHT30;55104;47.356;19.448;2024-01-15T10:41:39;3.50;67.74
68274;SHT30;55104;47.356;19.448;2024-01-15T10:44:41;3.63;68.27
68274;SHT30;55104;47.356;19.448;2024-01-15T10:47:45;3.74;67.75
68274;SHT30;55104;47.356;19.448;2024-01-15T10:50:47;3.84;67.62
68274;SHT30;55104;47.356;19.448;2024-01-15T10:53:50;3.97;66.21
68274;SHT30;55104;47.356;19.448;2024-01-15T10:56:53;3.98;66.23
68274;SHT30;55104;47.356;19.448;2024-01-15T10:59:56;4.13;66.14
68274;SHT30;55104;47.356;19.448;2024-01-15T11:03:00;4.21;64.94
68274;SHT30;55104;47.356;19.448;2024-01-15T11:06:16;4.22;65.43
68274;SHT30;55104;47.356;19.448;2024-01-15T11:09:19;4.35;63.79
68274;SHT30;55104;47.356;19.448;2024-01-15T11:12:21;4.15;64.04
68274;SHT30;55104;47.356;19.448;2024-01-15T11:15:24;4.21;64.01
68274;SHT30;55104;47.356;19.448;2024-01-15T11:18:35;4.29;63.70
68274;SHT30;55104;47.356;19.448;2024-01-15T11:21:42;4.43;62.62
68274;SHT30;55104;47.356;19.448;2024-01-15T11:24:45;4.52;61.95
68274;SHT30;55104;47.356;19.448;2024-01-15T11:27:49;4.63;61.82
68274;SHT30;55104;47.356;19.448;2024-01-15T11:30:55;4.68;62.04
68274;SHT30;55104;47.356;19.448;2024-01-15T11:33:58;4.59;61.77
68274;SHT30;55104;47.356;19.448;2024-01-15T11:37:02;4.77;61.59
68274;SHT30;55104;47.356;19.448;2024-01-15T11:40:06;4.74;60.55
68274;SHT30;55104;47.356;19.448;2024-01-15T11:43:13;4.80;60.40
68274;SHT30;55104;47.356;19.448;2024-01-15T11:46:17;4.81;60.77
68274;SHT30;55104;47.356;19.448;2024-01-15T11:56:17;4.97;60.37
68274;SHT30;55104;47.356;19.448;2024-01-15T11:59:19;4.95;60.56
68274;SHT30;55104;47.356;19.448;2024-01-15T12:02:22;5.05;61.44
68274;SHT30;55104;47.356;19.448;2024-01-15T12:05:24;5.15;60.97
68274;SHT30;55104;47.356;19.448;2024-01-15T12:08:26;5.14;60.36
68274;SHT30;55104;47.356;19.448;2024-01-15T12:11:30;5.09;60.49
68274;SHT30;55104;47.356;19.448;2024-01-15T12:14:33;5.07;60.24
68274;SHT30;55104;47.356;19.448;2024-01-15T12:17:36;4.98;60.35
68274;SHT30;55104;47.356;19.448;2024-01-15T12:20:40;4.91;60.65
68274;SHT30;55104;47.356;19.448;2024-01-15T12:23:46;5.01;60.88
68274;SHT30;55104;47.356;19.448;2024-01-15T12:26:48;5.12;60.13
68274;SHT30;55104;47.356;19.448;2024-01-15T12:29:53;5.05;60.20
68274;SHT30;55104;47.356;19.448;2024-01-15T12:32:55;5.01;60.22
68274;SHT30;55104;47.356;19.448;2024-01-15T12:35:58;4.94;60.00
68274;SHT30;55104;47.356;19.448;2024-01-15T12:39:00;5.01;60.63
68274;SHT30;55104;47.356;19.448;2024-01-15T12:42:02;4.99;60.90
68274;SHT30;55104;47.356;19.448;2024-01-15T12:45:06;4.98;60.50
68274;SHT30;55104;47.356;19.448;2024-01-15T12:48:08;5.09;60.74
68274;SHT30;55104;47.356;19.448;2024-01-15T12:51:11;5.07;59.80
68274;SHT30;55104;47.356;19.448;2024-01-15T12:54:13;5.08;60.33
68274;SHT30;55104;47.356;19.448;2024-01-15T12:57:16;4.98;60.21
68274;SHT30;55104;47.356;19.448;2024-01-15T13:00:19;4.95;60.13
68274;SHT30;55104;47.356;19.448;2024-01-15T13:03:22;4.85;60.31
68274;SHT30;55104;47.356;19.448;2024-01-15T13:06:24;4.84;60.82
68274;SHT30;55104;47.356;19.448;2024-01-15T13:09:27;4.77;60.45
68274;SHT30;55104;47.356;19.448;2024-01-15T13:12:29;4.68;60.47
68274;SHT30;55104;47.356;19.448;2024-01-15T13:15:31;4.68;61.24
68274;SHT30;55104;47.356;19.448;2024-01-15T13:18:33;4.64;60.82
68274;SHT30;55104;47.356;19.448;2024-01-15T13:21:36;4.63;61.12
68274;SHT30;55104;47.356;19.448;2024-01-15T13:24:38;4.59;61.26
68274;SHT30;55104;47.356;19.448;2024-01-15T13:27:40;4.63;61.24
68274;SHT30;55104;47.356;19.448;2024-01-15T13:30:44;4.52;61.58
68274;SHT30;55104;47.356;19.448;2024-01-15T13:33:46;4.54;61.60
68274;SHT30;55104;47.356;19.448;2024-01-15T13:36:48;4.48;61.58
68274;SHT30;55104;47.356;19.448;2024-01-15T13:39:52;4.43;61.73
68274;SHT30;55104;47.356;19.448;2024-01-15T13:42:55;4.43;61.81
68274;SHT30;55104;47.356;19.448;2024-01-15T13:45:57;4.42;62.04
68274;SHT30;55104;47.356;19.448;2024-01-15T13:48:59;4.32;62.41
68274;SHT30;55104;47.356;19.448;2024-01-15T13:52:03;4.26;62.50
68274;SHT30;55104;47.356;19.448;2024-01-15T13:55:06;4.22;62.60
68274;SHT30;55104;47.356;19.448;2024-01-15T13:58:11;4.13;62.46
68274;SHT30;55104;47.356;19.448;2024-01-15T14:01:15;3.98;62.67
68274;SHT30;55104;47.356;19.448;2024-01-15T14:04:19;3.84;63.52
68274;SHT30;55104;47.356;19.448;2024-01-15T14:07:21;3.63;64.31
68274;SHT30;55104;47.356;19.448;2024-01-15T14:10:23;3.63;64.46
68274;SHT30;55104;47.356;19.448;2024-01-15T14:13:26;3.46;65.35
68274;SHT30;55104;47.356;19.448;2024-01-15T14:16:28;3.38;65.53
68274;SHT30;55104;47.356;19.448;2024-01-15T14:19:30;3.35;65.65
68274;SHT30;55104;47.356;19.448;2024-01-15T14:22:32;3.33;65.88
68274;SHT30;55104;47.356;19.448;2024-01-15T14:25:34;3.26;66.26
68274;SHT30;55104;47.356;19.448;2024-01-15T14:28:37;3.26;66.50
68274;SHT30;55104;47.356;19.448;2024-01-15T14:31:40;3.22;66.66
68274;SHT30;55104;47.356;19.448;2024-01-15T14:34:43;3.21;66.95
68274;SHT30;55104;47.356;19.448;2024-01-15T14:37:45;3.21;66.98
68274;SHT30;55104;47.356;19.448;2024-01-15T14:40:49;3.29;66.35
68274;SHT30;55104;47.356;19.448;2024-01-15T14:43:51;3.26;66.36
68274;SHT30;55104;47.356;19.448;2024-01-15T14:46:54;3.23;66.69
68274;SHT30;55104;47.356;19.448;2024-01-15T14:49:57;3.23;66.84
68274;SHT30;55104;47.356;19.448;2024-01-15T14:52:59;3.19;66.99
68274;SHT30;55104;47.356;19.448;2024-01-15T14:56:01;3.11;67.42
68274;SHT30;55104;47.356;19.448;2024-01-15T14:59:05;3.12;67.54
68274;SHT30;55104;47.356;19.448;2024-01-15T15:02:07;3.07;67.66
68274;SHT30;55104;47.356;19.448;2024-01-15T15:05:11;3.01;68.07
68274;SHT30;55104;47.356;19.448;2024-01-15T15:08:15;2.94;68.23
68274;SHT30;55104;47.356;19.448;2024-01-15T15:11:17;2.94;68.26
68274;SHT30;55104;47.356;19.448;2024-01-15T15:14:19;3.02;68.22
68274;SHT30;55104;47.356;19.448;2024-01-15T15:17:22;2.95;68.43
68274;SHT30;55104;47.356;19.448;2024-01-15T15:20:24;2.85;68.84
68274;SHT30;55104;47.356;19.448;2024-01-15T15:23:26;2.72;69.45
68274;SHT30;55104;47.356;19.448;2024-01-15T15:26:29;2.61;70.07
68274;SHT30;55104;47.356;19.448;2024-01-15T15:29:32;2.58;70.32
68274;SHT30;55104;47.356;19.448;2024-01-15T15:32:35;2.47;70.62
68274;SHT30;55104;47.356;19.448;2024-01-15T15:35:37;2.39;71.41
68274;SHT30;55104;47.356;19.448;2024-01-15T15:38:41;2.35;71.57
68274;SHT30;55104;47.356;19.448;2024-01-15T15:41:44;2.37;71.88
68274;SHT30;55104;47.356;19.448;2024-01-15T15:44:46;2.45;72.03
68274;SHT30;55104;47.356;19.448;2024-01-15T15:47:48;2.30;72.27
68274;SHT30;55104;47.356;19.448;2024-01-15T15:50:51;2.30;72.22
68274;SHT30;55104;47.356;19.448;2024-01-15T15:53:54;2.33;72.60
68274;SHT30;55104;47.356;19.448;2024-01-15T15:56:56;2.35;72.21
68274;SHT30;55104;47.356;19.448;2024-01-15T15:59:59;2.35;72.19
68274;SHT30;55104;47.356;19.448;2024-01-15T16:03:01;2.33;72.04
68274;SHT30;55104;47.356;19.448;2024-01-15T16:06:03;2.33;72.12
68274;SHT30;55104;47.356;19.448;2024-01-15T16:09:06;2.46;71.06
68274;SHT30;55104;47.356;19.448;2024-01-15T16:12:08;2.42;71.36
68274;SHT30;55104;47.356;19.448;2024-01-15T16:15:18;2.40;71.23
68274;SHT30;55104;47.356;19.448;2024-01-15T16:18:21;2.37;71.01
68274;SHT30;55104;47.356;19.448;2024-01-15T16:21:44;2.47;69.93
68274;SHT30;55104;47.356;19.448;2024-01-15T16:25:06;2.60;68.35
68274;SHT30;55104;47.356;19.448;2024-01-15T16:28:09;2.72;67.62
68274;SHT30;55104;47.356;19.448;2024-01-15T16:31:12;2.77;67.05
68274;SHT30;55104;47.356;19.448;2024-01-15T16:34:14;2.68;67.44
68274;SHT30;55104;47.356;19.448;2024-01-15T16:37:17;2.76;67.10
68274;SHT30;55104;47.356;19.448;2024-01-15T16:40:19;2.72;67.53
68274;SHT30;55104;47.356;19.448;2024-01-15T16:43:22;2.76;66.89
68274;SHT30;55104;47.356;19.448;2024-01-15T16:46:24;2.79;66.77
68274;SHT30;55104;47.356;19.448;2024-01-15T16:49:27;2.70;67.30
68274;SHT30;55104;47.356;19.448;2024-01-15T16:52:30;2.64;67.55
68274;SHT30;55104;47.356;19.448;2024-01-15T16:55:32;2.56;68.02
68274;SHT30;55104;47.356;19.448;2024-01-15T16:58:35;2.61;67.51
68274;SHT30;55104;47.356;19.448;2024-01-15T17:01:37;2.54;67.77
68274;SHT30;55104;47.356;19.448;2024-01-15T17:04:39;2.56;67.37
68274;SHT30;55104;47.356;19.448;2024-01-15T17:07:42;2.64;67.36
68274;SHT30;55104;47.356;19.448;2024-01-15T17:10:44;2.45;70.50
68274;SHT30;55104;47.356;19.448;2024-01-15T17:13:46;2.24;73.06
68274;SHT30;55104;47.356;19.448;2024-01-15T17:16:49;2.05;74.43
68274;SHT30;55104;47.356;19.448;2024-01-15T17:19:51;1.90;75.63
68274;SHT30;55104;47.356;19.448;2024-01-15T17:22:55;1.67;76.53
68274;SHT30;55104;47.356;19.448;2024-01-15T17:25:58;1.67;76.98
68274;SHT30;55104;47.356;19.448;2024-01-15T17:29:01;1.59;77.36
68274;SHT30;55104;47.356;19.448;2024-01-15T17:32:03;1.52;77.87
68274;SHT30;55104;47.356;19.448;2024-01-15T17:35:05;1.36;78.38
68274;SHT30;55104;47.356;19.448;2024-01-15T17:38:08;1.39;78.30
68274;SHT30;55104;47.356;19.448;2024-01-15T17:41:10;1.36;78.23
68274;SHT30;55104;47.356;19.448;2024-01-15T17:44:12;1.39;78.07
68274;SHT30;55104;47.356;19.448;2024-01-15T17:47:15;1.49;76.65
68274;SHT30;55104;47.356;19.448;2024-01-15T17:50:17;1.49;76.72
68274;SHT30;55104;47.356;19.448;2024-01-15T17:53:21;1.50;77.31
68274;SHT30;55104;47.356;19.448;2024-01-15T17:56:24;1.45;77.49
68274;SHT30;55104;47.356;19.448;2024-01-15T17:59:26;1.43;77.10
68274;SHT30;55104;47.356;19.448;2024-01-15T18:02:29;1.39;77.01
68274;SHT30;55104;47.356;19.448;2024-01-15T18:05:32;1.38;77.13
68274;SHT30;55104;47.356;19.448;2024-01-15T18:08:35;1.31;76.97
68274;SHT30;55104;47.356;19.448;2024-01-15T18:11:37;1.33;76.72
68274;SHT30;55104;47.356;19.448;2024-01-15T18:14:40;1.29;76.87
68274;SHT30;55104;47.356;19.448;2024-01-15T18:17:43;1.32;76.38
68274;SHT30;55104;47.356;19.448;2024-01-15T18:20:45;1.29;76.89
68274;SHT30;55104;47.356;19.448;2024-01-15T18:23:48;1.16;77.12
68274;SHT30;55104;47.356;19.448;2024-01-15T18:26:51;1.15;77.21
68274;SHT30;55104;47.356;19.448;2024-01-15T18:29:54;1.15;76.97
68274;SHT30;55104;47.356;19.448;2024-01-15T18:32:56;1.14;77.01
68274;SHT30;55104;47.356;19.448;2024-01-15T18:36:01;1.01;77.57
68274;SHT30;55104;47.356;19.448;2024-01-15T18:39:05;1.15;76.68
68274;SHT30;55104;47.356;19.448;2024-01-15T18:42:09;1.24;76.29
68274;SHT30;55104;47.356;19.448;2024-01-15T18:45:12;1.56;73.55
68274;SHT30;55104;47.356;19.448;2024-01-15T18:48:16;1.67;72.94
68274;SHT30;55104;47.356;19.448;2024-01-15T18:51:22;1.68;72.86
68274;SHT30;55104;47.356;19.448;2024-01-15T18:54:25;1.68;72.98
68274;SHT30;55104;47.356;19.448;2024-01-15T18:57:29;1.71;72.86
68274;SHT30;55104;47.356;19.448;2024-01-15T19:00:32;1.70;72.63
68274;SHT30;55104;47.356;19.448;2024-01-15T19:03:36;1.66;72.90
68274;SHT30;55104;47.356;19.448;2024-01-15T19:06:40;1.68;72.37
68274;SHT30;55104;47.356;19.448;2024-01-15T19:09:45;1.53;73.19
68274;SHT30;55104;47.356;19.448;2024-01-15T19:12:48;1.49;73.77
68274;SHT30;55104;47.356;19.448;2024-01-15T19:15:50;1.53;73.36